createdAt,value
2022-08-18T00:02:20.663Z,20.00
2022-08-18T00:04:53.196Z,20.00
2022-08-18T00:07:31.659Z,20.00
2022-08-18T00:10:01.604Z,20.00
2022-08-18T00:12:39.038Z,20.00
2022-08-18T00:15:08.744Z,20.00
2022-08-18T00:17:36.591Z,20.00
2022-08-18T00:20:07.175Z,20.00
2022-08-18T00:22:33.977Z,20.00
2022-08-18T00:25:01.155Z,20.00
2022-08-18T00:27:30.829Z,20.00
2022-08-18T00:30:00.727Z,20.00
2022-08-18T00:32:33.857Z,19.90
2022-08-18T00:35:09.994Z,20.00
2022-08-18T00:37:37.325Z,19.90
2022-08-18T00:40:04.701Z,19.90
2022-08-18T00:42:31.904Z,19.90
2022-08-18T00:45:05.196Z,19.90
2022-08-18T00:47:41.861Z,19.90
2022-08-18T00:50:27.933Z,19.90
2022-08-18T00:53:02.007Z,19.80
2022-08-18T00:55:30.789Z,19.80
2022-08-18T00:58:07.195Z,19.80
2022-08-18T01:00:34.342Z,19.80
2022-08-18T01:03:07.076Z,19.80
2022-08-18T01:05:40.936Z,19.80
2022-08-18T01:08:11.957Z,19.70
2022-08-18T01:10:40.578Z,19.70
2022-08-18T01:13:07.892Z,19.70
2022-08-18T01:15:38.531Z,19.70
2022-08-18T01:18:28.455Z,19.70
2022-08-18T01:21:27.106Z,19.70
2022-08-18T01:23:59.000Z,19.60
2022-08-18T01:26:28.528Z,19.60
2022-08-18T01:28:55.407Z,19.60
2022-08-18T01:31:38.774Z,19.60
2022-08-18T01:34:11.105Z,19.60
2022-08-18T01:36:40.724Z,19.60
2022-08-18T01:39:11.135Z,19.60
2022-08-18T01:41:38.560Z,19.50
2022-08-18T01:44:06.019Z,19.50
2022-08-18T01:46:35.578Z,19.50
2022-08-18T01:49:03.607Z,19.50
2022-08-18T01:51:38.914Z,19.50
2022-08-18T01:54:08.412Z,19.50
2022-08-18T01:56:36.714Z,19.40
2022-08-18T01:59:05.017Z,19.40
2022-08-18T02:01:36.544Z,19.30
2022-08-18T02:04:33.246Z,19.30
2022-08-18T02:06:54.414Z,19.30
2022-08-18T02:09:24.338Z,19.30
2022-08-18T02:11:52.933Z,19.20
2022-08-18T02:14:25.269Z,19.20
2022-08-18T02:17:01.265Z,19.20
2022-08-18T02:19:49.772Z,19.30
2022-08-18T02:22:21.577Z,19.20
2022-08-18T02:24:51.895Z,19.20
2022-08-18T02:27:18.700Z,19.20
2022-08-18T02:29:45.604Z,19.20
2022-08-18T02:32:12.742Z,19.10
2022-08-18T02:34:40.848Z,19.10
2022-08-18T02:37:10.837Z,19.10
2022-08-18T02:39:39.909Z,19.10
2022-08-18T02:42:07.330Z,19.10
2022-08-18T02:44:34.835Z,19.00
2022-08-18T02:47:02.002Z,19.00
2022-08-18T02:49:28.702Z,18.90
2022-08-18T02:51:55.436Z,19.00
2022-08-18T02:54:23.679Z,19.00
2022-08-18T02:56:52.000Z,19.00
2022-08-18T02:59:24.902Z,19.00
2022-08-18T03:01:55.539Z,19.00
2022-08-18T03:04:29.459Z,19.00
2022-08-18T03:06:59.810Z,19.00
2022-08-18T03:09:26.771Z,19.00
2022-08-18T03:11:54.580Z,19.00
2022-08-18T03:14:21.860Z,19.10
2022-08-18T03:16:54.807Z,19.10
2022-08-18T03:19:24.529Z,19.10
2022-08-18T03:21:51.297Z,19.20
2022-08-18T03:24:22.986Z,19.20
2022-08-18T03:26:51.708Z,19.20
2022-08-18T03:29:19.510Z,19.20
2022-08-18T03:31:48.802Z,19.30
2022-08-18T03:34:21.180Z,19.30
2022-08-18T03:36:50.510Z,19.30
2022-08-18T03:39:19.407Z,19.30
2022-08-18T03:42:00.225Z,19.30
2022-08-18T03:44:33.570Z,19.30
2022-08-18T03:47:03.095Z,19.40
2022-08-18T03:49:31.101Z,19.40
2022-08-18T03:52:00.847Z,19.40
2022-08-18T03:54:28.887Z,19.40
2022-08-18T03:56:55.998Z,19.40
2022-08-18T03:59:25.458Z,19.50
2022-08-18T04:01:55.019Z,19.50
2022-08-18T04:04:24.787Z,19.50
2022-08-18T04:06:55.672Z,19.50
2022-08-18T04:09:24.736Z,19.60
2022-08-18T04:11:54.391Z,19.60
2022-08-18T04:14:32.971Z,19.50
2022-08-18T04:17:00.151Z,19.50
2022-08-18T04:19:29.112Z,19.50
2022-08-18T04:21:57.913Z,19.60
2022-08-18T04:24:26.689Z,19.60
2022-08-18T04:26:57.580Z,19.60
2022-08-18T04:29:24.951Z,19.50
2022-08-18T04:31:51.986Z,19.50
2022-08-18T04:34:20.992Z,19.50
2022-08-18T04:36:48.364Z,19.50
2022-08-18T04:39:15.708Z,19.50
2022-08-18T04:41:43.842Z,19.50
2022-08-18T04:44:14.840Z,19.50
2022-08-18T04:46:46.253Z,19.50
2022-08-18T04:49:15.785Z,19.50
2022-08-18T04:52:38.310Z,19.50
2022-08-18T04:54:53.876Z,19.50
2022-08-18T04:57:23.489Z,19.50
2022-08-18T04:59:52.255Z,19.50
2022-08-18T05:02:20.757Z,19.40
2022-08-18T05:04:48.340Z,19.50
2022-08-18T05:07:19.255Z,19.40
2022-08-18T05:09:46.895Z,19.40
2022-08-18T05:12:14.917Z,19.40
2022-08-18T05:14:46.424Z,19.40
2022-08-18T05:17:14.303Z,19.40
2022-08-18T05:19:44.492Z,19.40
2022-08-18T05:22:17.794Z,19.40
2022-08-18T05:24:46.063Z,19.40
2022-08-18T05:27:13.524Z,19.40
2022-08-18T05:29:41.703Z,19.40
2022-08-18T05:32:38.311Z,19.40
2022-08-18T05:35:36.236Z,19.40
2022-08-18T05:38:28.008Z,19.60
2022-08-18T05:41:17.915Z,19.60
2022-08-18T05:43:52.082Z,19.70
2022-08-18T05:46:22.108Z,19.70
2022-08-18T05:48:49.777Z,19.80
2022-08-18T05:51:44.912Z,19.90
2022-08-18T05:54:32.205Z,20.00
2022-08-18T05:57:08.073Z,20.00
2022-08-18T05:59:41.156Z,20.10
2022-08-18T06:02:37.031Z,20.20
2022-08-18T06:05:12.232Z,20.20
2022-08-18T06:08:01.546Z,20.30
2022-08-18T06:10:28.490Z,20.30
2022-08-18T06:13:00.456Z,20.40
2022-08-18T06:15:39.840Z,20.40
2022-08-18T06:18:28.733Z,20.40
2022-08-18T06:21:25.574Z,20.50
2022-08-18T06:24:03.342Z,20.60
2022-08-18T06:26:49.433Z,20.60
2022-08-18T06:29:37.482Z,20.60
2022-08-18T06:32:14.128Z,20.70
2022-08-18T06:35:00.268Z,20.70
2022-08-18T06:37:34.491Z,20.70
2022-08-18T06:40:02.247Z,20.80
2022-08-18T06:42:31.794Z,20.80
2022-08-18T06:45:01.079Z,20.90
2022-08-18T06:47:40.867Z,20.90
2022-08-18T06:50:30.522Z,20.90
2022-08-18T06:53:00.267Z,21.10
2022-08-18T06:55:39.556Z,21.10
2022-08-18T06:58:27.068Z,21.20
2022-08-18T07:00:55.069Z,21.30
2022-08-18T07:03:46.153Z,21.30
2022-08-18T07:06:22.186Z,21.30
2022-08-18T07:08:51.442Z,21.30
2022-08-18T07:11:28.492Z,21.40
2022-08-18T07:14:16.435Z,21.40
2022-08-18T07:16:58.350Z,21.40
2022-08-18T07:19:29.760Z,21.50
2022-08-18T07:22:08.171Z,21.50
2022-08-18T07:24:46.948Z,21.60
2022-08-18T07:27:19.735Z,21.60
2022-08-18T07:30:24.948Z,21.60
2022-08-18T07:33:00.986Z,21.70
2022-08-18T07:35:40.403Z,21.60
2022-08-18T07:38:41.456Z,21.60
2022-08-18T07:41:24.117Z,21.60
2022-08-18T07:44:09.850Z,21.60
2022-08-18T07:47:00.451Z,21.60
2022-08-18T07:49:35.400Z,21.60
2022-08-18T07:52:43.935Z,21.70
2022-08-18T07:55:31.714Z,21.80
2022-08-18T07:58:29.283Z,21.90
2022-08-18T08:01:24.112Z,22.00
2022-08-18T08:04:07.082Z,22.10
2022-08-18T08:06:41.207Z,22.20
2022-08-18T08:09:31.258Z,22.10
2022-08-18T08:12:16.440Z,22.30
2022-08-18T08:14:49.792Z,22.30
2022-08-18T08:17:43.008Z,22.30
2022-08-18T08:20:17.335Z,22.30
2022-08-18T08:23:23.671Z,22.30
2022-08-18T08:26:21.856Z,22.40
2022-08-18T08:29:00.850Z,22.40
2022-08-18T08:31:50.452Z,22.30
2022-08-18T08:34:57.272Z,22.40
2022-08-18T08:37:47.066Z,22.50
2022-08-18T08:40:20.284Z,22.60
2022-08-18T08:42:55.438Z,22.90
2022-08-18T08:45:28.357Z,23.00
2022-08-18T08:48:09.289Z,23.00
2022-08-18T08:50:41.878Z,23.00
2022-08-18T08:53:13.951Z,22.90
2022-08-18T08:55:52.476Z,22.80
2022-08-18T08:58:19.316Z,22.70
2022-08-18T09:00:48.254Z,22.70
2022-08-18T09:03:46.979Z,22.70
2022-08-18T09:06:39.245Z,22.70
2022-08-18T09:09:14.946Z,22.70
2022-08-18T09:11:51.831Z,22.70
2022-08-18T09:15:00.392Z,22.80
2022-08-18T09:17:58.367Z,23.00
2022-08-18T09:20:45.731Z,23.10
2022-08-18T09:23:40.726Z,23.20
2022-08-18T09:26:22.789Z,23.20
2022-08-18T09:29:06.008Z,23.40
2022-08-18T09:31:33.949Z,23.40
2022-08-18T09:34:10.560Z,23.50
2022-08-18T09:36:45.753Z,23.60
2022-08-18T09:39:56.819Z,23.60
2022-08-18T09:42:54.886Z,23.70
2022-08-18T09:45:33.723Z,23.80
2022-08-18T09:48:28.343Z,23.90
2022-08-18T09:50:57.416Z,23.80
2022-08-18T09:53:38.312Z,23.80
2022-08-18T09:56:06.705Z,23.90
2022-08-18T09:59:00.288Z,24.00
2022-08-18T10:01:30.295Z,24.00
2022-08-18T10:04:21.950Z,24.00
2022-08-18T10:07:22.011Z,24.10
2022-08-18T10:10:59.802Z,24.10
2022-08-18T10:13:13.186Z,24.10
2022-08-18T10:15:48.678Z,24.10
2022-08-18T10:18:25.845Z,24.10
2022-08-18T10:21:12.481Z,24.00
2022-08-18T10:26:54.791Z,24.10
2022-08-18T10:29:28.556Z,24.10
2022-08-18T10:31:55.514Z,24.10
2022-08-18T10:37:46.174Z,24.20
2022-08-18T10:40:21.249Z,24.10
2022-08-18T10:43:45.223Z,24.10
2022-08-18T10:49:01.274Z,24.20
2022-08-18T10:51:59.660Z,24.30
2022-08-18T10:57:43.236Z,24.50
2022-08-18T11:00:20.313Z,24.50
2022-08-18T11:03:02.677Z,24.70
2022-08-18T11:05:42.897Z,24.80
2022-08-18T11:08:20.169Z,25.00
2022-08-18T11:11:27.339Z,25.20
2022-08-18T11:13:40.658Z,25.30
2022-08-18T11:16:30.853Z,25.40
2022-08-18T11:19:14.833Z,25.50
2022-08-18T11:21:51.482Z,25.60
2022-08-18T11:24:25.583Z,25.70
2022-08-18T11:27:17.241Z,25.80
2022-08-18T11:29:44.608Z,25.80
2022-08-18T11:32:24.197Z,25.80
2022-08-18T11:35:11.749Z,25.70
2022-08-18T11:37:52.329Z,25.60
2022-08-18T11:43:42.426Z,25.50
2022-08-18T11:46:30.116Z,25.40
2022-08-18T11:49:00.777Z,25.40
2022-08-18T11:51:32.314Z,25.60
2022-08-18T11:54:01.606Z,25.80
2022-08-18T11:56:38.556Z,26.10
2022-08-18T11:59:09.337Z,26.30
2022-08-18T12:01:51.478Z,26.30
2022-08-18T12:04:31.415Z,26.20
2022-08-18T12:07:14.977Z,26.20
2022-08-18T12:10:16.447Z,26.30
2022-08-18T12:12:52.053Z,26.40
2022-08-18T12:15:24.759Z,26.30
2022-08-18T12:17:53.603Z,26.20
2022-08-18T12:20:22.044Z,26.10
2022-08-18T12:22:56.890Z,26.10
2022-08-18T12:25:26.166Z,26.30
2022-08-18T12:27:54.015Z,26.40
2022-08-18T12:30:21.306Z,26.60
2022-08-18T12:32:56.316Z,26.70
2022-08-18T12:35:32.039Z,26.80
2022-08-18T12:38:03.181Z,26.90
2022-08-18T12:40:34.492Z,27.10
2022-08-18T12:43:01.672Z,27.30
2022-08-18T12:45:30.919Z,27.50
2022-08-18T12:47:59.616Z,27.60
2022-08-18T12:50:30.926Z,27.50
2022-08-18T12:53:00.395Z,27.40
2022-08-18T12:55:29.750Z,27.30
2022-08-18T12:57:56.591Z,27.20
2022-08-18T13:00:29.307Z,27.30
2022-08-18T13:02:57.455Z,27.40
2022-08-18T13:05:27.404Z,27.40
2022-08-18T13:08:04.514Z,27.50
2022-08-18T13:10:44.933Z,27.60
2022-08-18T13:13:17.872Z,27.70
2022-08-18T13:15:55.370Z,27.70
2022-08-18T13:18:27.177Z,27.70
2022-08-18T13:20:55.668Z,27.80
2022-08-18T13:23:25.202Z,27.90
2022-08-18T13:25:59.327Z,27.90
2022-08-18T13:28:36.063Z,28.00
2022-08-18T13:31:20.372Z,28.20
2022-08-18T13:33:59.338Z,28.20
2022-08-18T13:36:44.393Z,28.10
2022-08-18T13:39:19.210Z,27.90
2022-08-18T13:41:48.998Z,27.80
2022-08-18T13:44:18.715Z,27.60
2022-08-18T13:46:48.078Z,27.60
2022-08-18T13:49:23.782Z,27.60
2022-08-18T13:51:58.051Z,27.60
2022-08-18T13:54:36.042Z,27.50
2022-08-18T13:57:04.242Z,27.30
2022-08-18T13:59:33.166Z,27.10
2022-08-18T14:02:05.907Z,26.90
2022-08-18T14:04:38.522Z,26.70
2022-08-18T14:07:11.003Z,26.60
2022-08-18T14:09:41.576Z,26.50
2022-08-18T14:12:23.402Z,26.50
2022-08-18T14:14:53.668Z,26.50
2022-08-18T14:17:22.912Z,26.50
2022-08-18T14:20:21.871Z,26.60
2022-08-18T14:23:22.047Z,26.70
2022-08-18T14:26:09.891Z,26.70
2022-08-18T14:28:38.250Z,26.80
2022-08-18T14:31:08.127Z,26.80
2022-08-18T14:33:51.879Z,26.70
2022-08-18T14:36:29.459Z,26.80
2022-08-18T14:38:58.476Z,26.70
2022-08-18T14:41:27.605Z,26.60
2022-08-18T14:44:13.227Z,26.50
2022-08-18T14:46:54.495Z,26.40
2022-08-18T14:49:28.535Z,26.40
2022-08-18T14:51:57.825Z,26.40
2022-08-18T14:54:28.776Z,26.50
2022-08-18T14:56:58.446Z,26.60
2022-08-18T14:59:37.610Z,26.60
2022-08-18T15:02:06.646Z,26.70
2022-08-18T15:04:55.857Z,26.70
2022-08-18T15:07:24.994Z,26.70
2022-08-18T15:10:15.062Z,26.70
2022-08-18T15:12:42.207Z,26.70
2022-08-18T15:15:13.057Z,26.80
2022-08-18T15:17:44.702Z,26.70
2022-08-18T15:20:17.867Z,26.70
2022-08-18T15:23:04.476Z,26.70
2022-08-18T15:25:43.880Z,26.70
2022-08-18T15:28:23.770Z,26.60
2022-08-18T15:31:16.781Z,26.70
2022-08-18T15:33:39.694Z,26.70
2022-08-18T15:36:16.247Z,26.60
2022-08-18T15:38:43.239Z,26.70
2022-08-18T15:41:10.196Z,26.70
2022-08-18T15:43:42.019Z,26.80
2022-08-18T15:46:16.635Z,26.70
2022-08-18T15:48:43.791Z,26.70
2022-08-18T15:51:12.083Z,26.70
2022-08-18T15:53:44.889Z,26.60
2022-08-18T15:56:14.878Z,26.60
2022-08-18T15:58:42.009Z,26.70
2022-08-18T16:01:29.706Z,26.70
2022-08-18T16:03:57.948Z,26.70
2022-08-18T16:06:27.847Z,26.70
2022-08-18T16:08:59.700Z,26.60
2022-08-18T16:11:29.789Z,26.60
2022-08-18T16:14:01.103Z,26.60
2022-08-18T16:16:29.060Z,26.60
2022-08-18T16:19:05.877Z,26.60
2022-08-18T16:21:33.227Z,26.60
2022-08-18T16:24:00.078Z,26.60
2022-08-18T16:26:26.919Z,26.60
2022-08-18T16:28:59.159Z,26.60
2022-08-18T16:31:28.433Z,26.60
2022-08-18T16:33:57.284Z,26.60
2022-08-18T16:36:26.662Z,26.60
2022-08-18T16:38:56.165Z,26.60
2022-08-18T16:41:26.488Z,26.60
2022-08-18T16:43:53.751Z,26.50
2022-08-18T16:46:25.977Z,26.50
2022-08-18T16:48:54.237Z,26.50
2022-08-18T16:51:23.665Z,26.40
2022-08-18T16:53:52.993Z,26.30
2022-08-18T16:56:30.149Z,26.30
2022-08-18T16:59:16.556Z,26.30
2022-08-18T17:02:01.865Z,26.20
2022-08-18T17:04:34.620Z,26.20
2022-08-18T17:07:04.863Z,26.10
2022-08-18T17:09:33.183Z,26.10
2022-08-18T17:12:00.899Z,26.10
2022-08-18T17:14:31.106Z,26.10
2022-08-18T17:17:00.297Z,26.10
2022-08-18T17:19:30.147Z,26.10
2022-08-18T17:21:57.225Z,26.10
2022-08-18T17:24:31.039Z,26.20
2022-08-18T17:27:26.016Z,26.20
2022-08-18T17:29:58.353Z,26.20
2022-08-18T17:32:48.841Z,26.10
2022-08-18T17:35:39.181Z,26.10
2022-08-18T17:38:19.073Z,26.00
2022-08-18T17:40:49.465Z,26.00
2022-08-18T17:43:22.698Z,26.00
2022-08-18T17:45:55.728Z,26.00
2022-08-18T17:48:28.594Z,26.10
2022-08-18T17:51:22.467Z,26.10
2022-08-18T17:53:49.568Z,26.00
2022-08-18T17:56:21.096Z,25.90
2022-08-18T17:59:45.490Z,25.90
2022-08-18T18:02:29.242Z,25.80
2022-08-18T18:05:02.973Z,25.70
2022-08-18T18:07:36.630Z,25.60
2022-08-18T18:10:22.327Z,25.60
2022-08-18T18:13:08.699Z,25.50
2022-08-18T18:15:40.781Z,25.50
2022-08-18T18:18:23.668Z,25.50
2022-08-18T18:21:06.085Z,25.50
2022-08-18T18:23:41.332Z,25.70
2022-08-18T18:26:26.085Z,25.90
2022-08-18T18:29:11.306Z,26.20
2022-08-18T18:32:01.528Z,26.40
2022-08-18T18:34:36.566Z,26.30
2022-08-18T18:37:06.403Z,26.00
2022-08-18T18:39:36.660Z,25.70
2022-08-18T18:42:19.087Z,25.50
2022-08-18T18:44:54.400Z,25.30
2022-08-18T18:48:00.523Z,25.10
2022-08-18T18:51:11.098Z,24.90
2022-08-18T18:54:01.121Z,24.70
2022-08-18T18:56:44.389Z,24.60
2022-08-18T18:59:48.987Z,24.40
2022-08-18T19:02:33.435Z,24.30
2022-08-18T19:05:18.018Z,24.10
2022-08-18T19:08:33.152Z,24.10
2022-08-18T19:11:10.824Z,23.90
2022-08-18T19:13:46.559Z,23.80
2022-08-18T19:16:26.816Z,23.70
2022-08-18T19:19:37.325Z,23.60
2022-08-18T19:22:03.698Z,23.50
2022-08-18T19:24:38.836Z,23.40
2022-08-18T19:27:10.943Z,23.40
2022-08-18T19:29:43.053Z,23.30
2022-08-18T19:32:17.871Z,23.20
2022-08-18T19:34:52.637Z,23.10
2022-08-18T19:37:40.414Z,23.10
2022-08-18T19:40:27.253Z,23.00
2022-08-18T19:43:03.492Z,23.00
2022-08-18T19:45:59.282Z,22.90
2022-08-18T19:48:36.699Z,22.90
2022-08-18T19:51:17.665Z,22.80
2022-08-18T19:53:52.646Z,22.70
2022-08-18T19:56:34.103Z,22.60
2022-08-18T19:59:35.975Z,22.60
2022-08-18T20:02:25.402Z,22.60
2022-08-18T20:05:00.911Z,22.50
2022-08-18T20:07:40.152Z,22.50
2022-08-18T20:10:42.109Z,22.40
2022-08-18T20:13:43.211Z,22.40
2022-08-18T20:16:43.333Z,22.30
2022-08-18T20:19:42.653Z,22.20
2022-08-18T20:22:21.906Z,22.20
2022-08-18T20:25:05.721Z,22.20
2022-08-18T20:27:52.011Z,22.10
2022-08-18T20:30:50.633Z,22.10
2022-08-18T20:33:25.743Z,22.10
2022-08-18T20:36:11.936Z,22.00
2022-08-18T20:38:45.608Z,22.00
2022-08-18T20:41:33.882Z,22.00
2022-08-18T20:44:28.787Z,21.90
2022-08-18T20:47:15.236Z,21.90
2022-08-18T20:50:14.287Z,21.90
2022-08-18T20:52:49.511Z,21.80
2022-08-18T20:55:30.860Z,21.80
2022-08-18T20:58:10.045Z,21.70
2022-08-18T21:00:41.266Z,21.70
2022-08-18T21:03:12.990Z,21.70
2022-08-18T21:05:45.248Z,21.60
2022-08-18T21:08:16.327Z,21.60
2022-08-18T21:10:49.452Z,21.50
2022-08-18T21:13:46.191Z,21.50
2022-08-18T21:16:38.635Z,21.40
2022-08-18T21:19:18.111Z,21.40
2022-08-18T21:21:49.330Z,21.30
2022-08-18T21:24:40.354Z,21.30
2022-08-18T21:27:11.412Z,21.20
2022-08-18T21:29:49.041Z,21.20
2022-08-18T21:32:22.646Z,21.10
2022-08-18T21:34:50.090Z,21.10
2022-08-18T21:37:19.225Z,21.10
2022-08-18T21:39:55.587Z,21.10
2022-08-18T21:42:27.639Z,21.00
2022-08-18T21:45:00.496Z,21.00
2022-08-18T21:47:33.388Z,21.00
2022-08-18T21:50:01.647Z,20.90
2022-08-18T21:52:30.518Z,20.90
2022-08-18T21:55:04.421Z,20.80
2022-08-18T21:57:47.879Z,20.80
2022-08-18T22:00:34.499Z,20.80
2022-08-18T22:03:17.088Z,20.70
2022-08-18T22:05:58.624Z,20.70
2022-08-18T22:08:28.686Z,20.60
2022-08-18T22:12:02.181Z,20.60
2022-08-18T22:14:54.391Z,20.50
2022-08-18T22:17:30.353Z,20.50
2022-08-18T22:20:34.711Z,20.50
2022-08-18T22:23:31.628Z,20.50
2022-08-18T22:26:27.687Z,20.50
2022-08-18T22:29:13.105Z,20.40
2022-08-18T22:31:45.062Z,20.40
2022-08-18T22:34:16.450Z,20.30
2022-08-18T22:36:46.187Z,20.30
2022-08-18T22:39:25.591Z,20.30
2022-08-18T22:41:52.786Z,20.20
2022-08-18T22:44:19.716Z,20.20
2022-08-18T22:46:46.577Z,20.20
2022-08-18T22:49:13.339Z,20.10
2022-08-18T22:51:40.085Z,20.10
2022-08-18T22:54:09.844Z,20.10
2022-08-18T22:56:38.534Z,20.10
2022-08-18T22:59:14.119Z,20.10
2022-08-18T23:01:45.622Z,20.10
2022-08-18T23:04:12.608Z,20.10
2022-08-18T23:06:39.420Z,20.10
2022-08-18T23:09:06.380Z,20.00
2022-08-18T23:11:35.780Z,20.00
2022-08-18T23:14:03.111Z,20.00
2022-08-18T23:16:30.374Z,19.90
2022-08-18T23:19:03.576Z,19.90
2022-08-18T23:21:35.219Z,19.80
2022-08-18T23:24:04.675Z,19.80
2022-08-18T23:26:33.976Z,19.70
2022-08-18T23:29:01.058Z,19.70
2022-08-18T23:31:27.843Z,19.70
2022-08-18T23:33:54.826Z,19.70
2022-08-18T23:36:21.755Z,19.60
2022-08-18T23:38:48.520Z,19.60
2022-08-18T23:41:16.403Z,19.60
2022-08-18T23:43:43.455Z,19.50
2022-08-18T23:46:23.865Z,19.50
2022-08-18T23:48:52.157Z,19.40
2022-08-18T23:51:29.430Z,19.40
2022-08-18T23:54:03.244Z,19.40
2022-08-18T23:56:31.761Z,19.40
2022-08-18T23:58:59.493Z,19.40
